Time;durP1;ratioP1;P1;durP2;ratioP2;P2;SDS_P1;SDS_P2;PMS_P1;PMS_P2;Temp;Humidity;BMP_temperature;BMP_pressure;BME280_temperature;BME280_humidity;BME280_pressure;Samples;Min_cycle;Max_cycle;Signal;HPM_P1;HPM_P2
2021/07/07 00:00:38;;;;;;;;;;;20.20;64.10;;;;;;491872;240;1058;-44
2021/07/07 00:02:40;;;;;;;;;;;20.20;63.90;;;;;;491626;240;1080;-44
2021/07/07 00:04:41;;;;;;;;;;;20.20;64.00;;;;;;491546;240;2192;-44
2021/07/07 00:06:42;;;;;;;;;;;20.20;64.10;;;;;;491596;240;1194;-44
2021/07/07 00:08:44;;;;;;;;;;;20.20;64.10;;;;;;491593;240;1059;-44
2021/07/07 00:10:45;;;;;;;;;;;20.20;64.10;;;;;;491697;240;1092;-44
2021/07/07 00:12:47;;;;;;;;;;;20.20;64.10;;;;;;491663;240;1079;-44
2021/07/07 00:14:48;;;;;;;;;;;20.20;64.20;;;;;;491669;240;2206;-43
2021/07/07 00:16:49;;;;;;;;;;;20.20;64.10;;;;;;491687;240;1069;-44
2021/07/07 00:18:50;;;;;;;;;;;20.20;64.10;;;;;;491503;240;1069;-44
2021/07/07 00:20:54;;;;;;;;;;;20.20;64.10;;;;;;491855;240;1302;-44
2021/07/07 00:22:55;;;;;;;;;;;20.20;64.10;;;;;;491641;240;1061;-44
2021/07/07 00:24:57;;;;;;;;;;;20.20;64.10;;;;;;491621;240;2188;-44
2021/07/07 00:26:58;;;;;;;;;;;20.20;64.00;;;;;;491752;240;1083;-44
2021/07/07 00:28:59;;;;;;;;;;;20.20;64.00;;;;;;491656;240;1049;-44
2021/07/07 00:31:01;;;;;;;;;;;20.20;63.90;;;;;;491529;240;1076;-44
2021/07/07 00:33:02;;;;;;;;;;;20.20;64.00;;;;;;491658;240;1150;-44
2021/07/07 00:35:03;;;;;;;;;;;20.20;64.10;;;;;;491544;240;1103;-44
2021/07/07 00:37:05;;;;;;;;;;;20.20;64.20;;;;;;491591;240;1381;-44
2021/07/07 00:39:06;;;;;;;;;;;20.20;64.20;;;;;;491857;240;1044;-44
2021/07/07 00:41:07;;;;;;;;;;;20.20;64.10;;;;;;491508;240;1258;-44
2021/07/07 00:43:10;;;;;;;;;;;20.20;64.10;;;;;;491505;240;1219;-44
2021/07/07 00:45:12;;;;;;;;;;;20.20;64.10;;;;;;491637;240;2183;-44
2021/07/07 00:47:13;;;;;;;;;;;20.20;64.10;;;;;;491575;240;1325;-44
2021/07/07 00:49:16;;;;;;;;;;;20.20;64.00;;;;;;491618;240;1229;-44
2021/07/07 00:51:16;;;;;;;;;;;20.20;64.00;;;;;;491605;240;2212;-44
2021/07/07 00:53:17;;;;;;;;;;;20.20;64.10;;;;;;491838;240;1246;-44
2021/07/07 00:55:18;;;;;;;;;;;20.20;64.10;;;;;;491612;240;986;-44
2021/07/07 00:57:20;;;;;;;;;;;20.20;64.10;;;;;;491540;240;1126;-44
2021/07/07 00:59:21;;;;;;;;;;;20.20;64.10;;;;;;491714;240;1070;-44
2021/07/07 01:01:22;;;;;;;;;;;20.20;64.10;;;;;;492000;240;1207;-44
2021/07/07 01:03:24;;;;;;;;;;;20.20;64.10;;;;;;491774;240;1223;-44
2021/07/07 01:05:25;;;;;;;;;;;20.20;64.10;;;;;;491591;240;2148;-44
2021/07/07 01:07:26;;;;;;;;;;;20.20;64.10;;;;;;491575;240;1181;-43
2021/07/07 01:09:28;;;;;;;;;;;20.20;64.10;;;;;;491547;240;1232;-44
2021/07/07 01:11:29;;;;;;;;;;;20.20;64.10;;;;;;491840;240;1216;-44
2021/07/07 01:13:30;;;;;;;;;;;20.20;64.10;;;;;;491977;240;1030;-44
2021/07/07 01:15:32;;;;;;;;;;;20.20;64.10;;;;;;491794;240;1060;-44
2021/07/07 01:17:33;;;;;;;;;;;20.20;64.00;;;;;;491550;240;1228;-44
2021/07/07 01:19:34;;;;;;;;;;;20.20;64.10;;;;;;491505;240;994;-44
2021/07/07 01:21:36;;;;;;;;;;;20.20;64.10;;;;;;491679;240;1087;-44
2021/07/07 01:23:37;;;;;;;;;;;20.20;64.10;;;;;;491608;240;1045;-44
2021/07/07 01:25:39;;;;;;;;;;;20.20;64.20;;;;;;491550;240;2140;-44
2021/07/07 01:27:40;;;;;;;;;;;20.20;64.10;;;;;;491575;240;1040;-44
2021/07/07 01:29:41;;;;;;;;;;;20.20;64.10;;;;;;491535;240;1051;-44
2021/07/07 01:31:43;;;;;;;;;;;20.20;64.00;;;;;;491683;240;1082;-44
2021/07/07 01:33:46;;;;;;;;;;;20.20;64.10;;;;;;491497;240;1032;-44
2021/07/07 01:35:45;;;;;;;;;;;20.20;64.10;;;;;;491627;240;2015;-44
2021/07/07 01:37:46;;;;;;;;;;;20.20;64.10;;;;;;491528;240;1187;-44
2021/07/07 01:39:48;;;;;;;;;;;20.20;64.00;;;;;;491512;240;1311;-44
2021/07/07 01:41:49;;;;;;;;;;;20.20;64.00;;;;;;491447;240;1140;-44
2021/07/07 01:43:50;;;;;;;;;;;20.20;64.00;;;;;;491579;240;1094;-44
2021/07/07 01:45:52;;;;;;;;;;;20.20;64.10;;;;;;491614;240;2188;-44
2021/07/07 01:47:53;;;;;;;;;;;20.20;64.10;;;;;;491728;240;1189;-44
2021/07/07 01:49:54;;;;;;;;;;;20.20;64.00;;;;;;492035;240;1056;-44
2021/07/07 01:51:56;;;;;;;;;;;20.20;64.10;;;;;;491545;240;1224;-44
2021/07/07 01:53:57;;;;;;;;;;;20.20;64.00;;;;;;491473;240;1176;-44
2021/07/07 01:55:58;;;;;;;;;;;20.20;64.00;;;;;;491957;240;1218;-44
2021/07/07 01:58:00;;;;;;;;;;;20.20;64.10;;;;;;491803;240;1082;-44
2021/07/07 02:00:01;;;;;;;;;;;20.20;64.10;;;;;;491762;240;1003;-44
2021/07/07 02:02:02;;;;;;;;;;;20.20;64.10;;;;;;491700;240;1044;-44
2021/07/07 02:04:04;;;;;;;;;;;20.20;64.10;;;;;;491542;240;1122;-44
2021/07/07 02:06:05;;;;;;;;;;;20.20;64.10;;;;;;491579;240;2153;-44
2021/07/07 02:08:06;;;;;;;;;;;20.20;64.10;;;;;;491598;240;1166;-44
2021/07/07 02:10:08;;;;;;;;;;;20.20;64.10;;;;;;491597;240;1047;-44
2021/07/07 02:12:09;;;;;;;;;;;20.20;64.10;;;;;;491789;240;999;-44
2021/07/07 02:14:10;;;;;;;;;;;20.20;64.10;;;;;;491542;240;1205;-44
2021/07/07 02:16:12;;;;;;;;;;;20.20;64.10;;;;;;492017;240;1040;-44
2021/07/07 02:18:13;;;;;;;;;;;20.20;64.20;;;;;;491688;240;1302;-44
2021/07/07 02:20:14;;;;;;;;;;;20.20;64.20;;;;;;491651;240;1077;-44
2021/07/07 02:22:16;;;;;;;;;;;20.20;64.30;;;;;;491643;240;1453;-44
2021/07/07 02:24:17;;;;;;;;;;;20.20;64.20;;;;;;492011;240;982;-44
2021/07/07 02:26:18;;;;;;;;;;;20.20;64.20;;;;;;491969;240;2125;-44
2021/07/07 02:28:21;;;;;;;;;;;20.20;64.10;;;;;;491727;240;1241;-44
2021/07/07 02:30:22;;;;;;;;;;;20.20;64.20;;;;;;491550;240;2009;-44
2021/07/07 02:32:23;;;;;;;;;;;20.20;64.20;;;;;;491821;240;1462;-44
2021/07/07 02:34:24;;;;;;;;;;;20.20;64.30;;;;;;491975;240;1090;-44
2021/07/07 02:36:26;;;;;;;;;;;20.20;64.20;;;;;;491520;240;1067;-44
2021/07/07 02:38:29;;;;;;;;;;;20.20;64.20;;;;;;491518;240;1182;-44
2021/07/07 02:40:28;;;;;;;;;;;20.20;64.10;;;;;;491552;240;2405;-44
2021/07/07 02:42:29;;;;;;;;;;;20.20;64.10;;;;;;491580;240;1054;-44
2021/07/07 02:44:31;;;;;;;;;;;20.20;64.10;;;;;;491532;240;2184;-44
2021/07/07 02:46:33;;;;;;;;;;;20.20;64.20;;;;;;491911;240;1161;-44
2021/07/07 02:48:35;;;;;;;;;;;20.20;64.20;;;;;;491561;240;1122;-44
2021/07/07 02:50:37;;;;;;;;;;;20.20;64.20;;;;;;491549;240;1050;-44
2021/07/07 02:52:39;;;;;;;;;;;20.20;64.20;;;;;;491576;240;1197;-44
2021/07/07 02:54:40;;;;;;;;;;;20.20;64.10;;;;;;491746;240;1094;-44
2021/07/07 02:56:41;;;;;;;;;;;20.20;64.10;;;;;;491954;240;1078;-44
2021/07/07 02:58:43;;;;;;;;;;;20.20;64.10;;;;;;491516;240;1039;-44
2021/07/07 03:00:44;;;;;;;;;;;20.20;64.20;;;;;;491541;240;1148;-44
2021/07/07 03:02:45;;;;;;;;;;;20.20;64.10;;;;;;491490;240;1138;-44
2021/07/07 03:04:47;;;;;;;;;;;20.20;64.10;;;;;;491550;240;2183;-44
2021/07/07 03:06:48;;;;;;;;;;;20.20;64.10;;;;;;491710;240;1817;-44
2021/07/07 03:08:49;;;;;;;;;;;20.20;64.10;;;;;;491685;240;1121;-43
2021/07/07 03:10:51;;;;;;;;;;;20.20;64.10;;;;;;491867;240;1048;-44
2021/07/07 03:12:52;;;;;;;;;;;20.20;64.10;;;;;;491528;240;1068;-44
2021/07/07 03:14:53;;;;;;;;;;;20.30;64.00;;;;;;491542;240;1041;-44
2021/07/07 03:16:55;;;;;;;;;;;20.30;64.00;;;;;;491601;240;1056;-44
2021/07/07 03:18:56;;;;;;;;;;;20.30;64.00;;;;;;491544;240;1074;-44
2021/07/07 03:20:57;;;;;;;;;;;20.30;64.10;;;;;;491615;240;1110;-44
2021/07/07 03:22:59;;;;;;;;;;;20.20;64.10;;;;;;491738;240;1167;-44
2021/07/07 03:25:00;;;;;;;;;;;20.20;64.00;;;;;;491575;240;2149;-44
2021/07/07 03:27:01;;;;;;;;;;;20.20;64.20;;;;;;491456;240;1303;-44
2021/07/07 03:29:02;;;;;;;;;;;20.20;64.10;;;;;;491752;240;1227;-44
2021/07/07 03:31:04;;;;;;;;;;;20.20;64.10;;;;;;491743;240;1474;-44
2021/07/07 03:33:05;;;;;;;;;;;20.20;64.10;;;;;;491483;240;1178;-44
2021/07/07 03:35:06;;;;;;;;;;;20.20;64.10;;;;;;491880;240;1079;-44
2021/07/07 03:37:08;;;;;;;;;;;20.20;64.10;;;;;;491548;240;1219;-44
2021/07/07 03:39:09;;;;;;;;;;;20.20;64.10;;;;;;491606;240;1213;-44
2021/07/07 03:41:10;;;;;;;;;;;20.30;64.10;;;;;;491545;240;1212;-43
2021/07/07 03:43:12;;;;;;;;;;;20.20;64.10;;;;;;491871;240;1289;-44
2021/07/07 03:45:13;;;;;;;;;;;20.30;64.10;;;;;;491949;240;2121;-44
2021/07/07 03:47:14;;;;;;;;;;;20.30;64.10;;;;;;491731;240;1184;-44
2021/07/07 03:49:16;;;;;;;;;;;20.20;64.00;;;;;;491829;240;1080;-44
2021/07/07 03:51:17;;;;;;;;;;;20.30;64.20;;;;;;491502;240;1084;-44
2021/07/07 03:53:18;;;;;;;;;;;20.20;64.10;;;;;;491745;240;1218;-44
2021/07/07 03:55:20;;;;;;;;;;;20.30;64.10;;;;;;491554;240;1060;-44
2021/07/07 03:57:21;;;;;;;;;;;20.20;64.10;;;;;;491654;240;1070;-44
2021/07/07 03:59:22;;;;;;;;;;;20.20;64.10;;;;;;491558;240;1126;-44
2021/07/07 04:01:24;;;;;;;;;;;20.30;64.20;;;;;;491875;240;1111;-44
2021/07/07 04:03:25;;;;;;;;;;;20.30;64.20;;;;;;491457;240;1091;-44
2021/07/07 04:05:26;;;;;;;;;;;20.20;64.10;;;;;;491752;240;2144;-44
2021/07/07 04:07:27;;;;;;;;;;;20.20;64.10;;;;;;491497;240;1048;-44
2021/07/07 04:09:29;;;;;;;;;;;20.20;64.10;;;;;;491626;240;1180;-44
2021/07/07 04:11:30;;;;;;;;;;;20.30;64.10;;;;;;491851;240;1018;-44
2021/07/07 04:13:32;;;;;;;;;;;20.20;64.10;;;;;;491639;240;1081;-44
2021/07/07 04:15:33;;;;;;;;;;;20.20;64.10;;;;;;491563;240;1032;-44
2021/07/07 04:17:34;;;;;;;;;;;20.30;64.10;;;;;;491544;240;1113;-44
2021/07/07 04:19:35;;;;;;;;;;;20.20;64.10;;;;;;491692;240;1075;-44
2021/07/07 04:21:37;;;;;;;;;;;20.20;64.10;;;;;;491411;240;1081;-44
2021/07/07 04:23:38;;;;;;;;;;;20.20;64.10;;;;;;491733;240;1154;-44
2021/07/07 04:25:40;;;;;;;;;;;20.20;64.10;;;;;;491475;240;2203;-44
2021/07/07 04:27:41;;;;;;;;;;;20.30;64.10;;;;;;491449;240;1051;-44
2021/07/07 04:29:43;;;;;;;;;;;20.30;64.20;;;;;;491621;240;1075;-44
2021/07/07 04:31:44;;;;;;;;;;;20.30;64.20;;;;;;491365;240;1103;-44
2021/07/07 04:33:45;;;;;;;;;;;20.20;64.10;;;;;;491498;240;1097;-44
2021/07/07 04:35:46;;;;;;;;;;;20.30;64.10;;;;;;491425;240;1208;-44
2021/07/07 04:37:48;;;;;;;;;;;20.30;64.10;;;;;;491497;240;1090;-44
2021/07/07 04:39:49;;;;;;;;;;;20.20;64.10;;;;;;491621;240;1162;-44
2021/07/07 04:41:50;;;;;;;;;;;20.30;64.20;;;;;;491378;240;1092;-44
2021/07/07 04:43:52;;;;;;;;;;;20.30;64.10;;;;;;491329;240;1196;-44
2021/07/07 04:45:53;;;;;;;;;;;20.30;64.10;;;;;;491466;240;2161;-44
2021/07/07 04:47:54;;;;;;;;;;;20.30;64.10;;;;;;491633;240;1257;-44
2021/07/07 04:49:56;;;;;;;;;;;20.20;64.10;;;;;;491245;240;1053;-44
2021/07/07 04:51:57;;;;;;;;;;;20.20;64.10;;;;;;491330;240;1141;-44
2021/07/07 04:53:58;;;;;;;;;;;20.30;64.20;;;;;;491303;240;1166;-44
2021/07/07 04:56:00;;;;;;;;;;;20.20;64.20;;;;;;491350;240;1080;-44
2021/07/07 04:58:01;;;;;;;;;;;20.20;64.10;;;;;;491548;240;1109;-44
2021/07/07 05:00:02;;;;;;;;;;;20.30;64.10;;;;;;491325;240;1089;-44
2021/07/07 05:02:04;;;;;;;;;;;20.30;64.20;;;;;;491371;240;1348;-44
2021/07/07 05:04:05;;;;;;;;;;;20.20;64.20;;;;;;491311;240;1160;-44
2021/07/07 05:06:07;;;;;;;;;;;20.20;64.10;;;;;;491424;240;2204;-44
2021/07/07 05:08:08;;;;;;;;;;;20.30;64.20;;;;;;491279;240;2204;-44
2021/07/07 05:10:09;;;;;;;;;;;20.30;64.20;;;;;;491231;240;1220;-44
2021/07/07 05:12:10;;;;;;;;;;;20.30;64.20;;;;;;491273;240;1211;-44
2021/07/07 05:14:11;;;;;;;;;;;20.20;64.10;;;;;;491538;240;1098;-44
2021/07/07 05:16:13;;;;;;;;;;;20.20;64.20;;;;;;491249;240;1183;-44
2021/07/07 05:18:14;;;;;;;;;;;20.20;64.20;;;;;;491372;240;1067;-44
2021/07/07 05:20:15;;;;;;;;;;;20.20;64.20;;;;;;491149;240;1098;-44
2021/07/07 05:22:17;;;;;;;;;;;20.20;64.10;;;;;;491259;240;1124;-44
2021/07/07 05:24:18;;;;;;;;;;;20.30;64.10;;;;;;491083;240;1323;-44
2021/07/07 05:26:19;;;;;;;;;;;20.30;64.20;;;;;;491173;240;2144;-44
2021/07/07 05:28:21;;;;;;;;;;;20.20;64.10;;;;;;491188;240;1082;-44
2021/07/07 05:30:24;;;;;;;;;;;20.20;64.20;;;;;;491269;240;1216;-44
2021/07/07 05:32:23;;;;;;;;;;;20.30;64.20;;;;;;491290;240;2179;-44
2021/07/07 05:34:25;;;;;;;;;;;20.30;64.20;;;;;;491181;240;1223;-44
2021/07/07 05:36:26;;;;;;;;;;;20.30;64.20;;;;;;491161;240;1086;-44
2021/07/07 05:38:28;;;;;;;;;;;20.30;64.20;;;;;;491387;240;1215;-44
2021/07/07 05:40:30;;;;;;;;;;;20.30;64.20;;;;;;491240;240;1168;-44
2021/07/07 05:42:31;;;;;;;;;;;20.20;64.20;;;;;;491024;240;1061;-44
2021/07/07 05:44:32;;;;;;;;;;;20.20;64.20;;;;;;491036;240;1159;-44
2021/07/07 05:46:34;;;;;;;;;;;20.20;64.20;;;;;;491058;240;2215;-44
2021/07/07 05:48:35;;;;;;;;;;;20.20;64.20;;;;;;491198;240;1093;-44
2021/07/07 05:50:36;;;;;;;;;;;20.30;64.20;;;;;;491266;240;1075;-44
2021/07/07 05:52:38;;;;;;;;;;;20.20;64.20;;;;;;491076;240;1142;-44
2021/07/07 05:54:39;;;;;;;;;;;20.20;64.20;;;;;;491110;240;1266;-44
2021/07/07 05:56:40;;;;;;;;;;;20.20;64.20;;;;;;491323;240;1226;-43
2021/07/07 05:58:42;;;;;;;;;;;20.30;64.20;;;;;;491185;240;1155;-44
2021/07/07 06:00:43;;;;;;;;;;;20.20;64.20;;;;;;491143;240;1085;-44
2021/07/07 06:02:44;;;;;;;;;;;20.30;64.20;;;;;;491084;240;1189;-44
2021/07/07 06:04:46;;;;;;;;;;;20.30;64.20;;;;;;491075;240;1282;-44
2021/07/07 06:06:47;;;;;;;;;;;20.30;64.20;;;;;;491074;240;2125;-44
2021/07/07 06:08:48;;;;;;;;;;;20.30;64.30;;;;;;491036;240;1259;-44
2021/07/07 06:10:49;;;;;;;;;;;20.20;64.30;;;;;;491153;240;1169;-44
2021/07/07 06:12:51;;;;;;;;;;;20.20;64.30;;;;;;491029;240;1202;-44
2021/07/07 06:14:52;;;;;;;;;;;20.20;64.20;;;;;;491093;240;1136;-44
2021/07/07 06:16:53;;;;;;;;;;;20.30;64.20;;;;;;491092;240;1160;-44
2021/07/07 06:18:55;;;;;;;;;;;20.20;64.20;;;;;;491089;240;1129;-44
2021/07/07 06:20:56;;;;;;;;;;;20.30;64.30;;;;;;491064;240;1266;-44
2021/07/07 06:22:57;;;;;;;;;;;20.30;64.20;;;;;;491079;240;1155;-43
2021/07/07 06:24:59;;;;;;;;;;;20.30;64.10;;;;;;490958;240;1186;-44
2021/07/07 06:27:00;;;;;;;;;;;20.30;64.10;;;;;;490832;240;2191;-44
2021/07/07 06:29:04;;;;;;;;;;;20.30;64.10;;;;;;490787;240;1229;-44
2021/07/07 06:31:03;;;;;;;;;;;20.30;64.10;;;;;;490780;240;2336;-44
2021/07/07 06:33:04;;;;;;;;;;;20.30;64.20;;;;;;490786;240;1190;-44
2021/07/07 06:35:05;;;;;;;;;;;20.20;64.20;;;;;;490799;240;1157;-44
2021/07/07 06:37:09;;;;;;;;;;;20.30;64.20;;;;;;490811;240;1298;-44
2021/07/07 06:39:08;;;;;;;;;;;20.30;64.20;;;;;;491004;240;1270;-44
2021/07/07 06:41:09;;;;;;;;;;;20.30;64.30;;;;;;490831;240;1351;-44
2021/07/07 06:43:11;;;;;;;;;;;20.20;64.30;;;;;;490646;240;1176;-44
2021/07/07 06:45:12;;;;;;;;;;;20.30;64.30;;;;;;490645;240;1105;-44
2021/07/07 06:47:13;;;;;;;;;;;20.20;64.30;;;;;;490588;240;2185;-44
2021/07/07 06:49:15;;;;;;;;;;;20.20;64.30;;;;;;490531;240;1093;-44
2021/07/07 06:51:16;;;;;;;;;;;20.20;64.30;;;;;;490614;240;1075;-44
2021/07/07 06:53:18;;;;;;;;;;;20.20;64.20;;;;;;490849;240;1235;-44
2021/07/07 06:55:21;;;;;;;;;;;20.30;64.20;;;;;;490820;240;1149;-44
2021/07/07 06:57:20;;;;;;;;;;;20.20;64.20;;;;;;490989;240;1804;-44
2021/07/07 06:59:22;;;;;;;;;;;20.20;64.30;;;;;;490651;240;1115;-44
2021/07/07 07:01:23;;;;;;;;;;;20.30;64.30;;;;;;490621;240;1238;-44
2021/07/07 07:03:24;;;;;;;;;;;20.20;64.20;;;;;;490704;240;1134;-44
2021/07/07 07:05:26;;;;;;;;;;;20.20;64.40;;;;;;490695;240;1227;-44
2021/07/07 07:07:27;;;;;;;;;;;20.30;64.30;;;;;;490928;240;2204;-44
2021/07/07 07:09:28;;;;;;;;;;;20.30;64.30;;;;;;490810;240;1078;-45
2021/07/07 07:11:30;;;;;;;;;;;20.30;64.30;;;;;;490661;240;1234;-44
2021/07/07 07:13:31;;;;;;;;;;;20.30;64.20;;;;;;491480;240;853;-44
2021/07/07 07:15:33;;;;;;;;;;;20.30;64.20;;;;;;490967;240;1137;-44
2021/07/07 07:17:34;;;;;;;;;;;20.30;64.20;;;;;;490943;240;1303;-44
2021/07/07 07:19:35;;;;;;;;;;;20.30;64.20;;;;;;490884;240;915;-44
2021/07/07 07:21:36;;;;;;;;;;;20.40;64.20;;;;;;491451;240;1193;-44
2021/07/07 07:23:38;;;;;;;;;;;20.40;64.00;;;;;;490990;240;872;-44
2021/07/07 07:25:39;;;;;;;;;;;20.40;63.70;;;;;;491360;240;1209;-44
2021/07/07 07:27:40;;;;;;;;;;;20.50;63.60;;;;;;491030;240;2199;-44
2021/07/07 07:29:42;;;;;;;;;;;20.60;63.60;;;;;;490951;240;1092;-44
2021/07/07 07:31:43;;;;;;;;;;;20.50;63.50;;;;;;490621;240;1269;-44
2021/07/07 07:33:44;;;;;;;;;;;20.60;63.50;;;;;;491329;240;1114;-44
2021/07/07 07:35:46;;;;;;;;;;;20.60;63.40;;;;;;490903;240;1078;-44
2021/07/07 07:37:50;;;;;;;;;;;20.60;63.40;;;;;;490438;240;1137;-44
2021/07/07 07:39:51;;;;;;;;;;;20.60;63.30;;;;;;490904;240;1403;-44
2021/07/07 07:41:51;;;;;;;;;;;20.60;63.30;;;;;;490876;240;2877;-44
2021/07/07 07:43:52;;;;;;;;;;;20.60;63.30;;;;;;490894;240;1082;-44
2021/07/07 07:45:55;;;;;;;;;;;20.60;63.30;;;;;;490340;240;1176;-44
2021/07/07 07:47:55;;;;;;;;;;;20.60;63.30;;;;;;490792;240;2235;-44
2021/07/07 07:49:56;;;;;;;;;;;20.60;63.40;;;;;;491093;240;1052;-44
2021/07/07 07:51:58;;;;;;;;;;;20.60;63.30;;;;;;491185;240;1311;-44
2021/07/07 07:53:59;;;;;;;;;;;20.70;63.40;;;;;;490732;240;1172;-44
2021/07/07 07:56:00;;;;;;;;;;;20.70;63.40;;;;;;490620;240;1131;-44
2021/07/07 07:58:03;;;;;;;;;;;20.70;63.30;;;;;;491147;240;1113;-44
2021/07/07 08:00:03;;;;;;;;;;;20.70;63.30;;;;;;491232;240;2085;-44
2021/07/07 08:02:04;;;;;;;;;;;20.70;63.20;;;;;;490840;240;1023;-44
2021/07/07 08:04:06;;;;;;;;;;;20.60;63.30;;;;;;490527;240;1074;-44
2021/07/07 08:06:08;;;;;;;;;;;20.60;63.30;;;;;;490466;240;1093;-44
2021/07/07 08:08:10;;;;;;;;;;;20.70;63.20;;;;;;490486;240;2184;-44
2021/07/07 08:10:11;;;;;;;;;;;20.70;63.30;;;;;;490587;240;1208;-44
2021/07/07 08:12:12;;;;;;;;;;;20.70;63.20;;;;;;490546;240;1300;-44
2021/07/07 08:14:14;;;;;;;;;;;20.60;63.50;;;;;;490573;240;1113;-44
2021/07/07 08:16:15;;;;;;;;;;;20.60;63.80;;;;;;490492;240;1202;-44
2021/07/07 08:18:17;;;;;;;;;;;20.60;63.90;;;;;;490390;240;1206;-44
2021/07/07 08:20:18;;;;;;;;;;;20.50;63.90;;;;;;490393;240;1884;-44
2021/07/07 08:22:19;;;;;;;;;;;20.50;63.90;;;;;;490524;240;1108;-44
2021/07/07 08:24:20;;;;;;;;;;;20.50;63.80;;;;;;490553;240;1208;-44
2021/07/07 08:26:22;;;;;;;;;;;20.50;63.90;;;;;;490498;240;1121;-44
2021/07/07 08:28:23;;;;;;;;;;;20.60;63.90;;;;;;490369;240;2137;-44
2021/07/07 08:30:24;;;;;;;;;;;20.60;63.80;;;;;;490297;240;1126;-44
2021/07/07 08:32:26;;;;;;;;;;;20.60;63.80;;;;;;490396;242;1352;-44
2021/07/07 08:34:27;;;;;;;;;;;20.60;63.90;;;;;;490556;240;1365;-44
2021/07/07 08:36:28;;;;;;;;;;;20.50;63.80;;;;;;490498;240;1225;-44
2021/07/07 08:38:30;;;;;;;;;;;20.50;63.80;;;;;;490620;240;1129;-44
2021/07/07 08:40:31;;;;;;;;;;;20.60;63.90;;;;;;490449;240;1332;-44
2021/07/07 08:42:34;;;;;;;;;;;20.60;63.90;;;;;;490500;240;1155;-44
2021/07/07 08:44:35;;;;;;;;;;;20.60;63.80;;;;;;490368;240;1249;-44
2021/07/07 08:46:37;;;;;;;;;;;20.60;63.70;;;;;;490347;240;1331;-44
2021/07/07 08:48:38;;;;;;;;;;;20.60;63.90;;;;;;490573;240;2168;-44
2021/07/07 08:50:39;;;;;;;;;;;20.60;63.90;;;;;;490578;240;1387;-44
2021/07/07 08:52:41;;;;;;;;;;;20.50;63.90;;;;;;490589;240;1102;-44
2021/07/07 08:54:46;;;;;;;;;;;20.60;63.90;;;;;;490507;240;1323;-45
2021/07/07 08:56:43;;;;;;;;;;;20.60;63.80;;;;;;490452;240;2162;-45
2021/07/07 08:58:45;;;;;;;;;;;20.60;63.90;;;;;;490681;240;1380;-45
2021/07/07 09:00:46;;;;;;;;;;;20.60;63.80;;;;;;490635;240;1344;-44
2021/07/07 09:02:47;;;;;;;;;;;20.60;63.70;;;;;;490536;240;1262;-45
2021/07/07 09:04:49;;;;;;;;;;;20.60;63.60;;;;;;490413;240;1318;-44
2021/07/07 09:06:50;;;;;;;;;;;20.60;63.70;;;;;;490455;240;2136;-44
2021/07/07 09:08:54;;;;;;;;;;;20.60;63.70;;;;;;490606;240;1075;-44
2021/07/07 09:10:53;;;;;;;;;;;20.60;63.60;;;;;;490412;240;1901;-45
2021/07/07 09:12:54;;;;;;;;;;;20.60;63.70;;;;;;490333;240;1190;-45
2021/07/07 09:14:56;;;;;;;;;;;20.60;63.70;;;;;;490463;240;1133;-45
2021/07/07 09:16:59;;;;;;;;;;;20.60;63.80;;;;;;490508;240;1153;-45
2021/07/07 09:18:59;;;;;;;;;;;20.60;63.90;;;;;;490779;240;2212;-45
2021/07/07 09:21:00;;;;;;;;;;;20.60;63.80;;;;;;491298;240;1073;-44
2021/07/07 09:23:02;;;;;;;;;;;20.60;63.70;;;;;;491457;240;1105;-44
2021/07/07 09:25:03;;;;;;;;;;;20.60;63.70;;;;;;491519;240;905;-45
2021/07/07 09:27:04;;;;;;;;;;;20.60;63.80;;;;;;491403;240;2192;-44
2021/07/07 09:29:06;;;;;;;;;;;20.60;63.80;;;;;;491399;240;939;-45
2021/07/07 09:31:08;;;;;;;;;;;20.60;63.80;;;;;;491309;240;1075;-44
2021/07/07 09:33:08;;;;;;;;;;;20.60;63.80;;;;;;491250;240;874;-45
2021/07/07 09:35:10;;;;;;;;;;;20.60;63.70;;;;;;491285;240;864;-44
2021/07/07 09:37:11;;;;;;;;;;;20.60;63.70;;;;;;491234;240;930;-45
2021/07/07 09:39:12;;;;;;;;;;;20.60;63.70;;;;;;490815;240;908;-45
2021/07/07 09:41:14;;;;;;;;;;;20.60;63.70;;;;;;490786;240;1162;-44
2021/07/07 09:43:15;;;;;;;;;;;20.60;63.80;;;;;;491034;240;1159;-45
2021/07/07 09:45:16;;;;;;;;;;;20.60;63.60;;;;;;491375;240;876;-44
2021/07/07 09:47:18;;;;;;;;;;;20.60;63.70;;;;;;490891;240;2184;-45
2021/07/07 09:49:19;;;;;;;;;;;20.60;63.70;;;;;;490703;240;868;-44
2021/07/07 09:51:20;;;;;;;;;;;20.60;63.70;;;;;;491093;240;1385;-45
2021/07/07 09:53:21;;;;;;;;;;;20.60;63.70;;;;;;491001;240;1303;-45
2021/07/07 09:55:23;;;;;;;;;;;20.60;63.60;;;;;;491185;240;885;-45
2021/07/07 09:57:24;;;;;;;;;;;20.60;63.60;;;;;;491251;240;1329;-45
2021/07/07 09:59:25;;;;;;;;;;;20.60;63.60;;;;;;490885;240;1014;-45
2021/07/07 10:01:27;;;;;;;;;;;20.60;63.70;;;;;;491407;240;1862;-45
2021/07/07 10:03:28;;;;;;;;;;;20.60;63.70;;;;;;491134;240;891;-45
2021/07/07 10:05:32;;;;;;;;;;;20.60;63.70;;;;;;490795;240;891;-45
2021/07/07 10:07:31;;;;;;;;;;;20.70;63.60;;;;;;490893;240;2200;-44
2021/07/07 10:09:32;;;;;;;;;;;20.60;63.60;;;;;;491489;240;844;-45
2021/07/07 10:11:33;;;;;;;;;;;20.70;63.50;;;;;;490979;240;861;-45
2021/07/07 10:13:35;;;;;;;;;;;20.70;63.50;;;;;;490977;240;1271;-44
2021/07/07 10:15:36;;;;;;;;;;;20.70;63.60;;;;;;491379;240;915;-44
2021/07/07 10:17:37;;;;;;;;;;;20.70;63.50;;;;;;491414;240;859;-44
2021/07/07 10:19:39;;;;;;;;;;;20.60;63.70;;;;;;491229;240;875;-44
2021/07/07 10:21:40;;;;;;;;;;;20.50;63.90;;;;;;491279;240;1466;-45
2021/07/07 10:23:41;;;;;;;;;;;20.50;64.20;;;;;;491292;240;870;-44
2021/07/07 10:25:43;;;;;;;;;;;20.40;64.40;;;;;;491221;240;1082;-44
2021/07/07 10:27:44;;;;;;;;;;;20.40;64.50;;;;;;491214;240;2196;-45
2021/07/07 10:29:45;;;;;;;;;;;20.40;64.50;;;;;;491387;240;1319;-44
2021/07/07 10:31:47;;;;;;;;;;;20.30;64.50;;;;;;491367;240;835;-44
2021/07/07 10:33:48;;;;;;;;;;;20.40;64.60;;;;;;491158;240;917;-44
2021/07/07 10:35:49;;;;;;;;;;;20.40;64.40;;;;;;491189;240;851;-45
2021/07/07 10:37:50;;;;;;;;;;;20.50;64.30;;;;;;490664;240;842;-44
2021/07/07 10:39:52;;;;;;;;;;;20.50;64.20;;;;;;491124;240;942;-44
2021/07/07 10:41:53;;;;;;;;;;;20.50;64.10;;;;;;490448;241;944;-44
2021/07/07 10:43:54;;;;;;;;;;;20.60;64.10;;;;;;490645;240;1250;-44
2021/07/07 10:45:56;;;;;;;;;;;20.60;64.10;;;;;;491236;240;892;-44
2021/07/07 10:47:57;;;;;;;;;;;20.60;64.00;;;;;;490895;240;2200;-45
2021/07/07 10:49:58;;;;;;;;;;;20.60;63.90;;;;;;490913;240;937;-44
2021/07/07 10:52:00;;;;;;;;;;;20.60;63.90;;;;;;490898;240;1018;-45
2021/07/07 10:54:01;;;;;;;;;;;20.60;63.80;;;;;;491279;240;834;-45
2021/07/07 10:56:02;;;;;;;;;;;20.60;63.80;;;;;;490760;240;1472;-44
2021/07/07 10:58:04;;;;;;;;;;;20.70;63.70;;;;;;491252;240;1159;-45
2021/07/07 11:00:05;;;;;;;;;;;20.60;63.70;;;;;;490869;240;943;-45
2021/07/07 11:02:07;;;;;;;;;;;20.60;63.80;;;;;;490800;240;1180;-44
2021/07/07 11:04:08;;;;;;;;;;;20.60;63.70;;;;;;491312;240;918;-45
2021/07/07 11:06:09;;;;;;;;;;;20.60;63.80;;;;;;490819;240;1249;-44
2021/07/07 11:08:11;;;;;;;;;;;20.60;63.80;;;;;;491254;240;2195;-44
2021/07/07 11:10:13;;;;;;;;;;;20.70;63.70;;;;;;491250;240;878;-45
2021/07/07 11:12:14;;;;;;;;;;;20.60;63.70;;;;;;491301;240;1194;-44
2021/07/07 11:14:15;;;;;;;;;;;20.70;63.80;;;;;;490881;240;2268;-45
2021/07/07 11:16:16;;;;;;;;;;;20.70;63.60;;;;;;490900;240;1084;-44
2021/07/07 11:18:18;;;;;;;;;;;20.70;63.60;;;;;;490958;240;1063;-45
2021/07/07 11:20:19;;;;;;;;;;;20.70;63.60;;;;;;491368;240;1094;-45
2021/07/07 11:22:21;;;;;;;;;;;20.70;63.70;;;;;;491341;240;1187;-44
2021/07/07 11:24:22;;;;;;;;;;;20.70;63.70;;;;;;491371;240;857;-45
2021/07/07 11:26:23;;;;;;;;;;;20.60;63.70;;;;;;491401;240;1429;-45
2021/07/07 11:28:25;;;;;;;;;;;20.70;63.60;;;;;;490925;240;2193;-45
2021/07/07 11:30:26;;;;;;;;;;;20.70;63.60;;;;;;490976;241;923;-45
2021/07/07 11:32:27;;;;;;;;;;;20.70;63.50;;;;;;491412;240;1094;-45
2021/07/07 11:34:29;;;;;;;;;;;20.70;63.60;;;;;;491342;240;1193;-44
2021/07/07 11:36:30;;;;;;;;;;;20.70;63.70;;;;;;491381;240;1220;-44
2021/07/07 11:38:31;;;;;;;;;;;20.60;63.60;;;;;;491239;240;1191;-44
2021/07/07 11:40:32;;;;;;;;;;;20.70;63.60;;;;;;490779;240;940;-45
2021/07/07 11:42:34;;;;;;;;;;;20.70;63.60;;;;;;491189;240;856;-45
2021/07/07 11:44:35;;;;;;;;;;;20.70;63.60;;;;;;490937;240;1252;-45
2021/07/07 11:46:36;;;;;;;;;;;20.70;63.70;;;;;;490704;240;1585;-45
2021/07/07 11:48:40;;;;;;;;;;;20.70;63.70;;;;;;491050;240;2200;-45
2021/07/07 11:50:41;;;;;;;;;;;20.70;63.60;;;;;;491237;240;2242;-45
2021/07/07 11:52:40;;;;;;;;;;;20.70;63.60;;;;;;490717;240;2279;-45
2021/07/07 11:54:42;;;;;;;;;;;20.70;63.60;;;;;;490759;240;900;-45
2021/07/07 11:56:43;;;;;;;;;;;20.70;63.50;;;;;;490756;240;1342;-44